createdAt,value
2019-02-04T00:00:44.076Z,4.10
2019-02-04T00:02:00.562Z,4.00
2019-02-04T00:03:17.901Z,4.00
2019-02-04T00:04:35.082Z,4.00
2019-02-04T00:05:51.709Z,4.00
2019-02-04T00:07:08.159Z,4.00
2019-02-04T00:08:25.489Z,4.00
2019-02-04T00:09:45.753Z,4.00
2019-02-04T00:11:02.685Z,4.00
2019-02-04T00:12:19.417Z,4.00
2019-02-04T00:13:35.976Z,4.00
2019-02-04T00:14:53.360Z,4.00
2019-02-04T00:16:09.852Z,4.00
2019-02-04T00:17:27.690Z,4.00
2019-02-04T00:18:44.480Z,4.00
2019-02-04T00:20:01.177Z,4.00
2019-02-04T00:21:17.745Z,4.00
2019-02-04T00:22:34.265Z,4.00
2019-02-04T00:23:50.557Z,4.10
2019-02-04T00:25:06.941Z,4.10
2019-02-04T00:26:24.184Z,4.00
2019-02-04T00:27:41.408Z,4.10
2019-02-04T00:28:58.337Z,4.00
2019-02-04T00:30:14.888Z,4.00
2019-02-04T00:31:31.425Z,4.00
2019-02-04T00:32:48.525Z,4.00
2019-02-04T00:34:04.978Z,4.10
2019-02-04T00:35:21.707Z,4.10
2019-02-04T00:36:38.201Z,4.00
2019-02-04T00:37:54.432Z,4.00
2019-02-04T00:39:10.897Z,4.00
2019-02-04T00:40:28.053Z,4.00
2019-02-04T00:41:44.557Z,4.00
2019-02-04T00:43:01.420Z,4.00
2019-02-04T00:44:18.646Z,4.10
2019-02-04T00:45:35.504Z,4.00
2019-02-04T00:46:52.765Z,4.00
2019-02-04T00:48:09.132Z,4.00
2019-02-04T00:49:25.645Z,4.00
2019-02-04T00:50:42.344Z,4.10
2019-02-04T00:51:58.722Z,4.10
2019-02-04T00:53:15.241Z,4.10
2019-02-04T00:54:32.452Z,4.10
2019-02-04T00:55:49.562Z,4.10
2019-02-04T00:57:05.924Z,4.10
2019-02-04T00:58:23.070Z,4.10
2019-02-04T00:59:38.362Z,4.10
2019-02-04T01:01:02.519Z,4.10
2019-02-04T01:02:19.181Z,4.10
2019-02-04T01:03:35.693Z,4.10
2019-02-04T01:04:52.016Z,4.10
2019-02-04T01:06:08.645Z,4.10
2019-02-04T01:07:25.121Z,4.10
2019-02-04T01:08:41.622Z,4.10
2019-02-04T01:09:58.308Z,4.20
2019-02-04T01:11:14.669Z,4.10
2019-02-04T01:12:31.521Z,4.10
2019-02-04T01:13:49.129Z,4.10
2019-02-04T01:15:05.948Z,4.10
2019-02-04T01:16:22.402Z,4.10
2019-02-04T01:17:38.807Z,4.10
2019-02-04T01:18:55.314Z,4.10
2019-02-04T01:20:12.203Z,4.10
2019-02-04T01:21:29.256Z,4.10
2019-02-04T01:22:45.547Z,4.10
2019-02-04T01:24:02.612Z,4.10
2019-02-04T01:25:19.116Z,4.10
2019-02-04T01:26:34.255Z,4.10
2019-02-04T01:27:50.780Z,4.10
2019-02-04T01:29:07.445Z,4.00
2019-02-04T01:30:23.767Z,4.00
2019-02-04T01:31:40.257Z,4.00
2019-02-04T01:32:57.037Z,4.00
2019-02-04T01:34:13.929Z,4.00
2019-02-04T01:35:30.533Z,4.00
2019-02-04T01:36:47.297Z,4.00
2019-02-04T01:38:04.775Z,4.10
2019-02-04T01:39:21.269Z,4.00
2019-02-04T01:40:38.416Z,4.00
2019-02-04T01:41:55.427Z,4.00
2019-02-04T01:43:12.160Z,4.00
2019-02-04T01:44:28.920Z,4.00
2019-02-04T01:45:46.309Z,4.00
2019-02-04T01:47:02.891Z,3.90
2019-02-04T01:48:19.965Z,4.00
2019-02-04T01:49:36.611Z,4.00
2019-02-04T01:50:53.227Z,3.90
2019-02-04T01:52:09.700Z,3.90
2019-02-04T01:53:26.648Z,4.00
2019-02-04T01:54:43.848Z,4.00
2019-02-04T01:56:00.516Z,3.90
2019-02-04T01:57:17.192Z,3.90
2019-02-04T01:58:33.601Z,3.90
2019-02-04T01:59:50.788Z,3.80
2019-02-04T02:01:07.463Z,3.80
2019-02-04T02:02:24.492Z,3.80
2019-02-04T02:03:41.054Z,3.80
2019-02-04T02:04:58.300Z,3.80
2019-02-04T02:06:17.273Z,3.80
2019-02-04T02:07:33.570Z,3.70
2019-02-04T02:08:50.281Z,3.70
2019-02-04T02:10:06.914Z,3.70
2019-02-04T02:11:23.819Z,3.70
2019-02-04T02:12:40.382Z,3.60
2019-02-04T02:13:56.626Z,3.60
2019-02-04T02:15:13.185Z,3.60
2019-02-04T02:16:29.669Z,3.60
2019-02-04T02:17:46.264Z,3.60
2019-02-04T02:19:02.768Z,3.50
2019-02-04T02:20:19.498Z,3.50
2019-02-04T02:21:35.909Z,3.50
2019-02-04T02:22:52.614Z,3.50
2019-02-04T02:24:09.156Z,3.40
2019-02-04T02:25:26.374Z,3.40
2019-02-04T02:26:43.064Z,3.40
2019-02-04T02:28:00.908Z,3.30
2019-02-04T02:29:17.413Z,3.30
2019-02-04T02:30:33.903Z,3.30
2019-02-04T02:31:49.077Z,3.20
2019-02-04T02:33:13.173Z,3.20
2019-02-04T02:34:29.549Z,3.20
2019-02-04T02:35:45.937Z,3.10
2019-02-04T02:37:02.540Z,3.10
2019-02-04T02:38:19.654Z,3.00
2019-02-04T02:39:36.101Z,2.90
2019-02-04T02:40:51.386Z,2.90
2019-02-04T02:42:15.463Z,2.90
2019-02-04T02:43:31.960Z,2.80
2019-02-04T02:44:49.137Z,2.80
2019-02-04T02:46:06.179Z,2.70
2019-02-04T02:47:22.753Z,2.70
2019-02-04T02:48:41.378Z,2.70
2019-02-04T02:49:57.812Z,2.70
2019-02-04T02:51:14.958Z,2.60
2019-02-04T02:52:31.397Z,2.60
2019-02-04T02:53:48.117Z,2.60
2019-02-04T02:55:04.699Z,2.50
2019-02-04T02:56:21.090Z,2.50
2019-02-04T02:57:37.505Z,2.50
2019-02-04T02:58:54.040Z,2.40
2019-02-04T03:00:11.370Z,2.40
2019-02-04T03:01:28.527Z,2.30
2019-02-04T03:02:45.710Z,2.30
2019-02-04T03:04:02.023Z,2.30
2019-02-04T03:05:18.473Z,2.20
2019-02-04T03:06:34.972Z,2.20
2019-02-04T03:07:51.601Z,2.20
2019-02-04T03:09:08.492Z,2.10
2019-02-04T03:10:25.037Z,2.10
2019-02-04T03:11:41.689Z,2.10
2019-02-04T03:12:58.880Z,2.00
2019-02-04T03:14:16.038Z,2.00
2019-02-04T03:15:32.468Z,2.00
2019-02-04T03:16:48.853Z,2.00
2019-02-04T03:18:05.115Z,2.00
2019-02-04T03:19:21.529Z,2.00
2019-02-04T03:20:37.783Z,1.90
2019-02-04T03:21:54.650Z,1.80
2019-02-04T03:23:11.166Z,1.80
2019-02-04T03:24:27.946Z,1.70
2019-02-04T03:25:44.336Z,1.70
2019-02-04T03:27:01.041Z,1.70
2019-02-04T03:28:17.609Z,1.60
2019-02-04T03:29:34.087Z,1.60
2019-02-04T03:30:50.718Z,1.60
2019-02-04T03:32:07.850Z,1.60
2019-02-04T03:33:24.840Z,1.60
2019-02-04T03:34:41.189Z,1.60
2019-02-04T03:35:58.149Z,1.60
2019-02-04T03:37:14.419Z,1.60
2019-02-04T03:38:30.981Z,1.50
2019-02-04T03:39:47.950Z,1.50
2019-02-04T03:41:04.378Z,1.50
2019-02-04T03:42:20.955Z,1.50
2019-02-04T03:43:37.564Z,1.40
2019-02-04T03:44:54.758Z,1.40
2019-02-04T03:46:11.526Z,1.40
2019-02-04T03:47:28.331Z,1.40
2019-02-04T03:48:45.362Z,1.40
2019-02-04T03:50:02.609Z,1.40
2019-02-04T03:51:19.633Z,1.40
2019-02-04T03:52:36.412Z,1.30
2019-02-04T03:53:52.788Z,1.30
2019-02-04T03:55:09.176Z,1.30
2019-02-04T03:56:24.381Z,1.30
2019-02-04T03:57:48.453Z,1.30
2019-02-04T03:59:07.130Z,1.20
2019-02-04T04:00:23.905Z,1.20
2019-02-04T04:01:40.540Z,1.20
2019-02-04T04:02:57.634Z,1.20
2019-02-04T04:04:15.141Z,1.20
2019-02-04T04:05:31.458Z,1.20
2019-02-04T04:06:47.935Z,1.20
2019-02-04T04:08:04.858Z,1.20
2019-02-04T04:09:21.457Z,1.10
2019-02-04T04:10:37.719Z,1.10
2019-02-04T04:11:54.409Z,1.10
2019-02-04T04:13:11.572Z,1.20
2019-02-04T04:14:28.085Z,1.20
2019-02-04T04:15:44.794Z,1.10
2019-02-04T04:17:01.812Z,1.10
2019-02-04T04:18:18.220Z,1.10
2019-02-04T04:19:35.281Z,1.20
2019-02-04T04:20:55.389Z,1.10
2019-02-04T04:22:12.573Z,1.10
2019-02-04T04:23:29.276Z,1.10
2019-02-04T04:24:46.473Z,1.10
2019-02-04T04:26:03.241Z,1.00
2019-02-04T04:27:19.722Z,1.00
2019-02-04T04:28:36.597Z,1.00
2019-02-04T04:29:53.203Z,1.00
2019-02-04T04:31:09.778Z,0.90
2019-02-04T04:32:26.177Z,0.90
2019-02-04T04:33:43.085Z,0.90
2019-02-04T04:34:59.692Z,0.90
2019-02-04T04:36:16.988Z,0.90
2019-02-04T04:37:33.611Z,0.90
2019-02-04T04:38:51.033Z,0.90
2019-02-04T04:40:07.435Z,0.80
2019-02-04T04:41:24.461Z,0.80
2019-02-04T04:42:40.932Z,0.70
2019-02-04T04:43:57.796Z,0.80
2019-02-04T04:45:14.248Z,0.80
2019-02-04T04:46:31.365Z,0.70
2019-02-04T04:47:48.452Z,0.70
2019-02-04T04:49:05.121Z,0.70
2019-02-04T04:50:22.271Z,0.70
2019-02-04T04:51:38.753Z,0.80
2019-02-04T04:52:55.225Z,0.70
2019-02-04T04:54:12.468Z,0.70
2019-02-04T04:55:29.120Z,0.60
2019-02-04T04:56:45.492Z,0.70
2019-02-04T04:58:03.288Z,0.60
2019-02-04T04:59:19.801Z,0.70
2019-02-04T05:00:36.213Z,0.60
2019-02-04T05:01:52.464Z,0.60
2019-02-04T05:03:09.117Z,0.50
2019-02-04T05:04:26.387Z,0.50
2019-02-04T05:05:42.800Z,0.40
2019-02-04T05:07:00.662Z,0.40
2019-02-04T05:08:17.688Z,0.30
2019-02-04T05:09:34.266Z,0.30
2019-02-04T05:10:50.625Z,0.20
2019-02-04T05:12:07.854Z,0.30
2019-02-04T05:13:24.580Z,0.20
2019-02-04T05:14:41.002Z,0.30
2019-02-04T05:15:57.456Z,0.30
2019-02-04T05:17:13.887Z,0.30
2019-02-04T05:18:37.732Z,0.30
2019-02-04T05:19:49.350Z,0.20
2019-02-04T05:21:05.646Z,0.10
2019-02-04T05:22:22.125Z,0.10
2019-02-04T05:23:38.760Z,0.10
2019-02-04T05:24:55.068Z,0.00
2019-02-04T05:26:11.662Z,0.00
2019-02-04T05:27:28.890Z,0.00
2019-02-04T05:28:46.119Z,0.00
2019-02-04T05:30:02.938Z,0.00
2019-02-04T05:31:19.332Z,0.00
2019-02-04T05:32:35.912Z,0.00
2019-02-04T05:33:53.176Z,0.00
2019-02-04T05:35:09.604Z,0.00
2019-02-04T05:36:26.874Z,0.10
2019-02-04T05:37:44.001Z,0.10
2019-02-04T05:39:00.521Z,0.10
2019-02-04T05:40:18.198Z,0.10
2019-02-04T05:41:35.145Z,0.00
2019-02-04T05:42:51.630Z,0.10
2019-02-04T05:44:10.864Z,0.00
2019-02-04T05:46:43.194Z,0.10
2019-02-04T05:47:59.606Z,0.00
2019-02-04T05:49:14.881Z,0.00
2019-02-04T05:50:39.050Z,0.00
2019-02-04T05:52:16.901Z,0.00
2019-02-04T05:53:33.385Z,0.00
2019-02-04T05:54:50.630Z,0.00
2019-02-04T05:56:07.222Z,0.10
2019-02-04T05:57:24.590Z,0.10
2019-02-04T05:58:39.742Z,0.10
2019-02-04T06:00:04.981Z,0.10
2019-02-04T06:01:23.742Z,0.00
2019-02-04T06:02:40.314Z,0.00
2019-02-04T06:03:56.718Z,0.00
2019-02-04T06:05:13.356Z,0.00
2019-02-04T06:06:29.786Z,0.00
2019-02-04T06:07:47.293Z,0.00
2019-02-04T06:09:04.760Z,0.00
2019-02-04T06:10:21.501Z,0.00
2019-02-04T06:11:38.080Z,0.00
2019-02-04T06:12:54.663Z,0.00
2019-02-04T06:14:11.343Z,0.00
2019-02-04T06:15:27.765Z,-0.10
2019-02-04T06:16:44.357Z,0.00
2019-02-04T06:18:01.137Z,0.00
2019-02-04T06:20:33.107Z,-0.10
2019-02-04T06:21:50.428Z,-0.10
2019-02-04T06:23:06.924Z,-0.10
2019-02-04T06:24:23.467Z,-0.10
2019-02-04T06:25:40.994Z,-0.10
2019-02-04T06:26:58.053Z,-0.10
2019-02-04T06:28:15.258Z,-0.10
2019-02-04T06:29:31.828Z,-0.10
2019-02-04T06:30:49.193Z,-0.10
2019-02-04T06:32:05.621Z,-0.10
2019-02-04T06:33:20.871Z,-0.10
2019-02-04T06:34:37.462Z,0.00
2019-02-04T06:35:52.732Z,0.00
2019-02-04T06:37:17.001Z,-0.10
2019-02-04T06:38:33.686Z,-0.10
2019-02-04T06:39:48.922Z,0.00
2019-02-04T06:41:13.053Z,0.00
2019-02-04T06:42:29.684Z,0.00
2019-02-04T06:43:46.039Z,-0.10
2019-02-04T06:45:02.660Z,-0.20
2019-02-04T06:46:20.082Z,-0.40
2019-02-04T06:47:36.460Z,-0.40
2019-02-04T06:48:52.825Z,-0.50
2019-02-04T06:50:09.482Z,-0.60
2019-02-04T06:51:27.996Z,-0.60
2019-02-04T06:52:45.063Z,-0.60
2019-02-04T06:54:02.346Z,-0.70
2019-02-04T06:55:18.817Z,-0.80
2019-02-04T06:56:36.057Z,-0.90
2019-02-04T06:57:53.298Z,-0.90
2019-02-04T06:59:10.062Z,-0.80
2019-02-04T07:00:27.453Z,-0.80
2019-02-04T07:01:43.867Z,-0.80
2019-02-04T07:03:00.630Z,-0.70
2019-02-04T07:04:18.115Z,-0.60
2019-02-04T07:05:43.445Z,-0.60
2019-02-04T07:06:53.087Z,-0.50
2019-02-04T07:08:09.634Z,-0.40
2019-02-04T07:09:26.020Z,-0.30
2019-02-04T07:10:42.464Z,-0.30
2019-02-04T07:11:58.927Z,-0.20
2019-02-04T07:13:15.747Z,-0.20
2019-02-04T07:14:32.261Z,-0.10
2019-02-04T07:15:48.647Z,0.00
2019-02-04T07:17:05.452Z,0.00
2019-02-04T07:18:22.874Z,0.10
2019-02-04T07:19:40.093Z,0.10
2019-02-04T07:22:13.931Z,0.20
2019-02-04T07:23:31.146Z,0.30
2019-02-04T07:24:48.530Z,0.60
2019-02-04T07:26:04.893Z,1.00
2019-02-04T07:27:22.694Z,1.40
2019-02-04T07:28:27.967Z,1.80
2019-02-04T07:29:33.140Z,2.30
2019-02-04T07:30:38.252Z,2.70
2019-02-04T07:31:43.297Z,3.00
2019-02-04T07:32:48.805Z,3.40
2019-02-04T07:33:53.839Z,3.80
2019-02-04T07:34:59.058Z,4.30
2019-02-04T07:36:04.578Z,4.80
2019-02-04T07:37:09.709Z,5.20
2019-02-04T07:38:15.945Z,5.50
2019-02-04T07:39:21.069Z,5.70
2019-02-04T07:40:28.257Z,6.10
2019-02-04T07:41:33.426Z,6.60
2019-02-04T07:42:38.534Z,7.50
2019-02-04T07:43:43.649Z,8.20
2019-02-04T07:44:48.764Z,8.80
2019-02-04T07:45:53.881Z,9.40
2019-02-04T07:46:58.922Z,10.00
2019-02-04T07:48:04.443Z,10.50
2019-02-04T07:49:09.481Z,10.60
2019-02-04T07:50:14.594Z,11.30
2019-02-04T07:51:19.712Z,11.70
2019-02-04T07:52:24.881Z,12.00
2019-02-04T07:53:29.987Z,12.50
2019-02-04T07:54:35.026Z,12.90
2019-02-04T07:55:40.171Z,13.40
2019-02-04T07:56:45.529Z,13.90
2019-02-04T07:57:51.016Z,13.90
2019-02-04T07:58:56.056Z,13.80
2019-02-04T08:00:01.175Z,14.20
2019-02-04T08:01:06.441Z,14.60
2019-02-04T08:02:11.572Z,14.80
2019-02-04T08:03:16.693Z,15.00
2019-02-04T08:04:21.807Z,15.60
2019-02-04T08:05:26.964Z,15.90
2019-02-04T08:06:32.067Z,16.30
2019-02-04T08:07:37.177Z,16.10
2019-02-04T08:08:42.435Z,15.60
2019-02-04T08:09:47.505Z,16.20
2019-02-04T08:10:52.694Z,16.90
2019-02-04T08:11:57.737Z,17.10
2019-02-04T08:13:02.842Z,17.60
2019-02-04T08:14:08.201Z,17.80
2019-02-04T08:15:16.405Z,18.10
2019-02-04T08:16:21.445Z,18.30
2019-02-04T08:17:26.581Z,18.50
2019-02-04T08:18:32.093Z,18.90
2019-02-04T08:19:46.688Z,19.30
2019-02-04T08:20:44.009Z,19.80
2019-02-04T08:21:49.155Z,20.20
2019-02-04T08:22:54.253Z,20.60
2019-02-04T08:23:59.271Z,20.90
2019-02-04T08:25:04.805Z,21.10
2019-02-04T08:26:09.852Z,21.40
2019-02-04T08:27:14.892Z,21.80
2019-02-04T08:28:20.012Z,21.40
2019-02-04T08:29:25.141Z,21.30
2019-02-04T08:30:32.476Z,21.60
2019-02-04T08:31:37.649Z,21.90
2019-02-04T08:32:42.834Z,22.00
2019-02-04T08:33:47.954Z,21.20
2019-02-04T08:34:53.110Z,21.40
2019-02-04T08:35:58.229Z,21.50
2019-02-04T08:37:03.337Z,21.70
2019-02-04T08:38:08.361Z,22.00
2019-02-04T08:39:14.888Z,22.40
2019-02-04T08:40:20.601Z,22.80
2019-02-04T08:41:25.796Z,23.20
2019-02-04T08:42:31.032Z,23.30
2019-02-04T08:43:36.264Z,23.20
2019-02-04T08:44:41.420Z,22.80
2019-02-04T08:45:46.464Z,22.40
2019-02-04T08:46:51.602Z,22.30
2019-02-04T08:47:56.644Z,22.20
2019-02-04T08:49:02.861Z,22.10
2019-02-04T08:50:09.734Z,22.10
2019-02-04T08:51:14.977Z,22.20
2019-02-04T08:52:20.113Z,22.10
2019-02-04T08:53:25.264Z,22.20
2019-02-04T08:54:30.456Z,22.20
2019-02-04T08:55:37.017Z,22.40
2019-02-04T08:56:43.085Z,22.60
2019-02-04T08:57:48.285Z,22.70
2019-02-04T08:58:53.410Z,22.60
2019-02-04T08:59:58.849Z,22.60
2019-02-04T09:01:04.389Z,22.80
2019-02-04T09:02:09.522Z,22.70
2019-02-04T09:03:14.652Z,22.40
2019-02-04T09:04:19.769Z,22.60
2019-02-04T09:05:25.541Z,22.80
2019-02-04T09:06:30.741Z,23.00
2019-02-04T09:07:35.804Z,23.30
2019-02-04T09:08:40.950Z,23.40
2019-02-04T09:09:46.051Z,23.40
2019-02-04T09:10:51.164Z,23.10
2019-02-04T09:11:56.277Z,22.70
2019-02-04T09:13:01.961Z,22.50
2019-02-04T09:14:07.496Z,22.60
2019-02-04T09:15:16.105Z,22.60
2019-02-04T09:16:20.079Z,22.60
2019-02-04T09:17:25.228Z,23.00
2019-02-04T09:18:30.508Z,23.30
2019-02-04T09:19:35.928Z,23.20
2019-02-04T09:20:41.238Z,23.20
2019-02-04T09:21:46.348Z,23.30
2019-02-04T09:22:51.415Z,23.50
2019-02-04T09:23:56.705Z,23.80
2019-02-04T09:25:01.763Z,24.00
2019-02-04T09:26:07.014Z,24.20
2019-02-04T09:27:12.138Z,24.10
2019-02-04T09:28:17.183Z,24.10
2019-02-04T09:29:22.272Z,24.00
2019-02-04T09:30:28.286Z,23.90
2019-02-04T09:31:33.541Z,23.90
2019-02-04T09:32:38.657Z,23.80
2019-02-04T09:33:43.779Z,23.90
2019-02-04T09:34:48.853Z,23.90
2019-02-04T09:35:54.022Z,23.90
2019-02-04T09:36:59.130Z,23.70
2019-02-04T09:38:04.208Z,23.50
2019-02-04T09:39:10.925Z,23.30
2019-02-04T09:40:28.697Z,23.40
2019-02-04T09:41:33.815Z,23.30
2019-02-04T09:42:39.014Z,23.10
2019-02-04T09:43:44.545Z,23.00
2019-02-04T09:44:49.896Z,22.70
2019-02-04T09:45:55.008Z,22.60
2019-02-04T09:47:00.212Z,22.20
2019-02-04T09:48:07.109Z,22.10
2019-02-04T09:49:12.287Z,22.10
2019-02-04T09:50:21.918Z,22.20
2019-02-04T09:51:25.531Z,22.10
2019-02-04T09:52:30.734Z,21.90
2019-02-04T09:53:35.834Z,21.50
2019-02-04T09:54:40.963Z,20.80
2019-02-04T09:55:46.109Z,20.30
2019-02-04T09:56:51.242Z,20.20
2019-02-04T09:57:56.346Z,20.40
2019-02-04T09:59:01.464Z,20.70
2019-02-04T10:00:07.303Z,20.90
2019-02-04T10:01:13.485Z,20.90
2019-02-04T10:02:18.586Z,20.80
2019-02-04T10:03:23.697Z,20.50
2019-02-04T10:04:28.815Z,20.10
2019-02-04T10:05:34.313Z,19.80
2019-02-04T10:06:39.918Z,19.70
2019-02-04T10:07:45.375Z,19.50
2019-02-04T10:08:50.493Z,19.10
2019-02-04T10:09:55.611Z,18.90
2019-02-04T10:11:00.716Z,18.90
2019-02-04T10:12:05.916Z,18.80
2019-02-04T10:13:11.054Z,18.60
2019-02-04T10:14:16.135Z,18.30
2019-02-04T10:15:32.817Z,18.30
2019-02-04T10:16:37.996Z,18.70
2019-02-04T10:17:43.216Z,19.00
2019-02-04T10:18:48.254Z,19.10
2019-02-04T10:19:53.317Z,19.20
2019-02-04T10:20:58.526Z,19.10
2019-02-04T10:22:03.741Z,19.20
2019-02-04T10:23:09.048Z,19.00
2019-02-04T10:24:14.242Z,18.70
2019-02-04T10:25:21.681Z,18.60
2019-02-04T10:26:26.900Z,18.40
2019-02-04T10:27:32.091Z,18.40
2019-02-04T10:28:37.289Z,18.40
2019-02-04T10:29:42.364Z,18.50
2019-02-04T10:30:47.387Z,18.50
2019-02-04T10:31:52.854Z,18.20
2019-02-04T10:32:58.336Z,18.00
2019-02-04T10:34:03.421Z,17.70
2019-02-04T10:35:16.584Z,17.50
2019-02-04T10:36:16.029Z,17.00
2019-02-04T10:37:21.174Z,16.40
2019-02-04T10:38:26.299Z,16.00
2019-02-04T10:39:31.571Z,15.70
2019-02-04T10:40:36.782Z,15.20
2019-02-04T10:41:41.941Z,14.80
2019-02-04T10:42:47.175Z,14.70
2019-02-04T10:43:52.363Z,14.60
2019-02-04T10:44:57.595Z,14.80
2019-02-04T10:46:04.821Z,14.80
2019-02-04T10:47:10.956Z,14.80
2019-02-04T10:48:17.105Z,14.70
2019-02-04T10:49:22.298Z,14.50
2019-02-04T10:50:29.688Z,14.20
2019-02-04T10:51:34.898Z,14.10
2019-02-04T10:52:40.996Z,13.90
2019-02-04T10:53:46.236Z,13.70
2019-02-04T10:54:54.528Z,13.50
2019-02-04T10:55:59.964Z,13.10
2019-02-04T10:57:05.585Z,12.70
2019-02-04T10:58:12.828Z,12.40
2019-02-04T10:59:18.013Z,12.00
2019-02-04T11:00:26.173Z,11.50
2019-02-04T11:01:31.326Z,11.30
2019-02-04T11:02:36.553Z,11.10
2019-02-04T11:03:41.700Z,10.90
2019-02-04T11:04:46.852Z,10.60
2019-02-04T11:05:52.132Z,10.30
2019-02-04T11:06:57.338Z,10.00
2019-02-04T11:08:02.551Z,9.80
2019-02-04T11:09:10.020Z,9.40
2019-02-04T11:10:16.382Z,8.90
2019-02-04T11:11:22.756Z,8.60
2019-02-04T11:12:27.818Z,8.40
2019-02-04T11:13:33.984Z,8.30
2019-02-04T11:14:41.881Z,8.00
2019-02-04T11:15:48.205Z,7.80
2019-02-04T11:16:55.406Z,7.70
2019-02-04T11:18:00.804Z,7.60
2019-02-04T11:19:06.546Z,7.50
2019-02-04T11:20:18.469Z,7.40
2019-02-04T11:21:23.608Z,7.30
2019-02-04T11:22:28.803Z,7.20
2019-02-04T11:23:33.982Z,7.00
2019-02-04T11:24:39.161Z,7.00
2019-02-04T11:25:44.660Z,7.00
2019-02-04T11:26:49.861Z,7.00
2019-02-04T11:27:55.151Z,7.00
2019-02-04T11:29:00.339Z,6.90
2019-02-04T11:30:09.219Z,6.90
2019-02-04T11:31:14.284Z,7.00
2019-02-04T11:32:19.610Z,7.00
2019-02-04T11:33:24.844Z,6.90
2019-02-04T11:34:30.011Z,6.90
2019-02-04T11:35:35.076Z,6.90
2019-02-04T11:36:40.358Z,6.80
2019-02-04T11:37:45.537Z,6.80
2019-02-04T11:38:50.845Z,6.70
2019-02-04T11:39:56.076Z,6.70
2019-02-04T11:41:01.179Z,6.80
2019-02-04T11:42:06.393Z,6.80
2019-02-04T11:43:11.728Z,6.80
2019-02-04T11:44:16.737Z,6.70
2019-02-04T11:45:21.906Z,6.60
2019-02-04T11:46:27.328Z,6.60
2019-02-04T11:47:32.839Z,6.60
2019-02-04T11:48:38.425Z,6.70
2019-02-04T11:49:43.591Z,6.80
2019-02-04T11:50:48.613Z,6.90
2019-02-04T11:51:53.997Z,6.90
2019-02-04T11:52:59.133Z,7.00
2019-02-04T11:54:04.297Z,7.00
2019-02-04T11:55:10.200Z,6.90
2019-02-04T11:56:15.325Z,6.90
2019-02-04T11:57:20.437Z,7.00
2019-02-04T11:58:25.525Z,7.10
2019-02-04T11:59:30.676Z,7.10
2019-02-04T12:00:36.206Z,7.10
2019-02-04T12:01:41.397Z,7.10
2019-02-04T12:02:46.517Z,7.20
2019-02-04T12:03:51.688Z,7.20
2019-02-04T12:04:56.803Z,7.10
2019-02-04T12:06:01.988Z,7.10
2019-02-04T12:07:07.092Z,7.10
2019-02-04T12:08:13.765Z,7.10
2019-02-04T12:09:19.281Z,7.00
2019-02-04T12:10:36.399Z,7.00
2019-02-04T12:11:41.527Z,7.00
2019-02-04T12:12:47.005Z,7.00
2019-02-04T12:13:52.602Z,7.00
2019-02-04T12:14:58.827Z,7.00
2019-02-04T12:16:04.014Z,7.00
2019-02-04T12:17:09.144Z,7.10
2019-02-04T12:18:14.197Z,7.20
2019-02-04T12:19:19.362Z,7.20
2019-02-04T12:20:24.484Z,7.10
2019-02-04T12:21:29.637Z,7.10
2019-02-04T12:22:34.860Z,7.10
2019-02-04T12:23:39.993Z,7.10
2019-02-04T12:24:45.120Z,7.10
2019-02-04T12:25:50.175Z,7.10
2019-02-04T12:26:55.277Z,7.10
2019-02-04T12:28:00.303Z,7.00
2019-02-04T12:29:05.656Z,7.00
2019-02-04T12:30:23.869Z,7.00
2019-02-04T12:31:29.135Z,6.90
2019-02-04T12:32:34.278Z,6.70
2019-02-04T12:33:39.321Z,6.60
2019-02-04T12:34:44.412Z,6.60
2019-02-04T12:35:49.477Z,6.40
2019-02-04T12:36:54.890Z,6.40
2019-02-04T12:38:00.423Z,6.30
2019-02-04T12:39:16.609Z,6.30
2019-02-04T12:40:22.018Z,6.20
2019-02-04T12:41:27.510Z,6.20
2019-02-04T12:42:32.598Z,6.20
2019-02-04T12:43:37.829Z,6.30
2019-02-04T12:44:42.865Z,6.30
2019-02-04T12:45:47.984Z,6.30
2019-02-04T12:46:53.080Z,6.50
2019-02-04T12:48:00.676Z,6.60
2019-02-04T12:49:05.108Z,6.70
2019-02-04T12:50:10.421Z,6.80
2019-02-04T12:51:15.930Z,6.80
2019-02-04T12:52:21.125Z,6.90
2019-02-04T12:53:26.213Z,6.90
2019-02-04T12:54:31.344Z,6.90
2019-02-04T12:55:36.463Z,6.90
2019-02-04T12:56:41.649Z,6.90
2019-02-04T12:57:47.112Z,7.00
2019-02-04T12:58:55.684Z,7.00
2019-02-04T12:59:58.984Z,6.90
2019-02-04T13:01:06.309Z,6.90
2019-02-04T13:02:11.350Z,6.90
2019-02-04T13:03:16.659Z,6.90
2019-02-04T13:04:22.185Z,6.90
2019-02-04T13:05:34.216Z,6.90
2019-02-04T13:06:39.721Z,6.90
2019-02-04T13:07:44.890Z,7.00
2019-02-04T13:08:51.145Z,7.00
2019-02-04T13:09:56.281Z,7.10
2019-02-04T13:11:01.359Z,7.00
2019-02-04T13:12:09.083Z,6.90
2019-02-04T13:13:18.326Z,6.90
2019-02-04T13:14:23.425Z,6.90
2019-02-04T13:15:28.454Z,6.90
2019-02-04T13:16:33.501Z,6.90
2019-02-04T13:17:38.557Z,6.90
2019-02-04T13:18:43.712Z,7.00
2019-02-04T13:19:48.805Z,7.00
2019-02-04T13:20:53.903Z,7.00
2019-02-04T13:21:59.070Z,7.10
2019-02-04T13:23:04.499Z,7.10
2019-02-04T13:24:09.597Z,7.10
2019-02-04T13:25:17.978Z,7.10
2019-02-04T13:26:23.109Z,7.10
2019-02-04T13:27:47.265Z,7.10
2019-02-04T13:29:04.562Z,7.10
2019-02-04T13:30:21.636Z,7.10
2019-02-04T13:31:39.032Z,7.20
2019-02-04T13:32:55.585Z,7.30
2019-02-04T13:34:12.537Z,7.40
2019-02-04T13:35:31.026Z,7.50
2019-02-04T13:36:47.701Z,7.50
2019-02-04T13:38:04.532Z,7.50
2019-02-04T13:39:21.070Z,7.50
2019-02-04T13:40:37.581Z,7.40
2019-02-04T13:41:54.294Z,7.30
2019-02-04T13:43:11.554Z,7.30
2019-02-04T13:44:27.892Z,7.20
2019-02-04T13:45:44.571Z,7.10
2019-02-04T13:47:01.673Z,7.10
2019-02-04T13:48:18.128Z,7.20
2019-02-04T13:49:34.520Z,7.20
2019-02-04T13:50:50.779Z,7.30
2019-02-04T13:52:07.733Z,7.30
2019-02-04T13:53:26.936Z,7.30
2019-02-04T13:54:42.511Z,7.40
2019-02-04T13:55:59.762Z,7.30
2019-02-04T13:57:16.421Z,7.20
2019-02-04T13:58:32.738Z,7.20
2019-02-04T13:59:49.601Z,7.10
2019-02-04T14:01:06.141Z,7.10
2019-02-04T14:02:22.631Z,7.20
2019-02-04T14:03:39.862Z,7.20
2019-02-04T14:04:56.624Z,7.20
2019-02-04T14:07:29.057Z,7.30
2019-02-04T14:08:46.294Z,7.30
2019-02-04T14:10:02.602Z,7.30
2019-02-04T14:11:19.625Z,7.30
2019-02-04T14:12:36.002Z,7.30
2019-02-04T14:13:52.960Z,7.10
2019-02-04T14:15:10.621Z,7.00
2019-02-04T14:16:27.030Z,6.90
2019-02-04T14:17:44.080Z,6.80
2019-02-04T14:19:00.690Z,6.80
2019-02-04T14:20:18.958Z,6.80
2019-02-04T14:21:35.238Z,6.70
2019-02-04T14:22:53.391Z,6.60
2019-02-04T14:24:10.489Z,6.40
2019-02-04T14:25:27.710Z,6.40
2019-02-04T14:26:44.857Z,6.50
2019-02-04T14:28:03.642Z,6.50
2019-02-04T14:29:20.653Z,6.40
2019-02-04T14:30:37.425Z,6.30
2019-02-04T14:31:53.817Z,6.40
2019-02-04T14:33:10.272Z,6.40
2019-02-04T14:34:26.719Z,6.40
2019-02-04T14:35:44.861Z,6.40
2019-02-04T14:37:01.595Z,6.40
2019-02-04T14:38:18.054Z,6.40
2019-02-04T14:39:34.993Z,6.40
2019-02-04T14:40:52.157Z,6.50
2019-02-04T14:42:08.510Z,6.40
2019-02-04T14:43:25.096Z,6.40
2019-02-04T14:44:41.604Z,6.40
2019-02-04T14:45:58.070Z,6.40
2019-02-04T14:47:14.456Z,6.50
2019-02-04T14:48:31.734Z,6.40
2019-02-04T14:49:48.288Z,6.40
2019-02-04T14:51:05.115Z,6.40
2019-02-04T14:52:22.330Z,6.40
2019-02-04T14:53:38.681Z,6.40
2019-02-04T14:54:55.060Z,6.40
2019-02-04T14:56:11.449Z,6.40
2019-02-04T14:57:28.767Z,6.40
2019-02-04T14:58:45.457Z,6.40
2019-02-04T15:00:01.862Z,6.30
2019-02-04T15:01:20.497Z,6.30
2019-02-04T15:02:36.961Z,6.30
2019-02-04T15:03:53.686Z,6.30
2019-02-04T15:05:10.855Z,6.30
2019-02-04T15:06:28.075Z,6.30
2019-02-04T15:07:44.587Z,6.20
2019-02-04T15:09:00.893Z,6.10
2019-02-04T15:10:21.637Z,6.00
2019-02-04T15:11:38.436Z,5.90
2019-02-04T15:12:54.718Z,5.90
2019-02-04T15:14:11.254Z,5.80
2019-02-04T15:15:28.131Z,5.90
2019-02-04T15:17:02.556Z,5.90
2019-02-04T15:18:45.721Z,5.80
2019-02-04T15:20:02.240Z,5.80
2019-02-04T15:21:18.809Z,5.70
2019-02-04T15:22:35.507Z,5.70
2019-02-04T15:23:52.788Z,5.70
2019-02-04T15:25:09.149Z,5.60
2019-02-04T15:26:26.090Z,5.60
2019-02-04T15:27:42.890Z,5.60
2019-02-04T15:28:59.119Z,5.50
2019-02-04T15:30:15.567Z,5.50
2019-02-04T15:31:32.354Z,5.50
2019-02-04T15:32:48.916Z,5.50
2019-02-04T15:34:06.036Z,5.50
2019-02-04T15:35:22.717Z,5.40
2019-02-04T15:36:39.410Z,5.30
2019-02-04T15:37:56.098Z,5.30
2019-02-04T15:39:36.664Z,5.20
2019-02-04T15:40:53.373Z,5.20
2019-02-04T15:42:09.795Z,5.10
2019-02-04T15:43:26.214Z,5.10
2019-02-04T15:44:43.772Z,5.10
2019-02-04T15:46:00.252Z,5.00
2019-02-04T15:47:16.790Z,5.00
2019-02-04T15:48:33.319Z,5.00
2019-02-04T15:50:13.364Z,5.00
2019-02-04T15:51:50.727Z,5.00
2019-02-04T15:53:14.839Z,4.90
2019-02-04T15:54:31.165Z,4.80
2019-02-04T15:55:47.776Z,4.70
2019-02-04T15:57:04.989Z,4.60
2019-02-04T15:58:21.497Z,4.50
2019-02-04T15:59:38.681Z,4.40
2019-02-04T16:00:53.890Z,4.30